Time;durP1;ratioP1;P1;durP2;ratioP2;P2;SDS_P1;SDS_P2;PMS_P1;PMS_P2;Temp;Humidity;BMP_temperature;BMP_pressure;BME280_temperature;BME280_humidity;BME280_pressure;Samples;Min_cycle;Max_cycle;Signal;HPM_P1;HPM_P2
2022/01/23 00:00:44;;;;;;;;;44.75;38.00;;;;;6.93;67.20;103002.81;4977219;28;45427;-60
2022/01/23 00:03:16;;;;;;;;;48.00;41.00;;;;;6.90;67.81;102997.50;4964834;28;45302;-59
2022/01/23 00:05:44;;;;;;;;;53.50;40.00;;;;;6.82;67.09;102999.31;4960271;28;45831;-59
2022/01/23 00:08:12;;;;;;;;;24.25;17.25;;;;;6.76;67.42;103000.19;4977585;28;45483;-59
2022/01/23 00:10:37;;;;;;;;;50.50;42.00;;;;;6.87;67.52;103011.63;4977109;28;45215;-58
2022/01/23 00:18:20;;;;;;;;;46.50;38.50;;;;;6.73;67.83;103005.47;4977565;28;45409;-63
2022/01/23 00:20:47;;;;;;;;;43.50;34.75;;;;;6.53;69.01;103012.56;4973891;28;45510;-58
2022/01/23 00:23:27;;;;;;;;;45.75;37.50;;;;;6.60;67.86;103009.91;4960399;28;47917;-58
2022/01/23 00:31:22;;;;;;;;;52.00;37.50;;;;;6.76;68.17;102997.53;4961305;28;45594;-58
2022/01/23 00:33:48;;;;;;;;;43.00;40.50;;;;;6.75;68.48;102993.13;4969066;28;46029;-57
2022/01/23 00:36:14;;;;;;;;;45.50;38.50;;;;;6.77;68.00;102988.72;4967308;28;45527;-59
2022/01/23 00:38:40;;;;;;;;;48.75;39.25;;;;;6.73;67.78;102987.84;4977318;28;45349;-58
2022/01/23 00:41:05;;;;;;;;;55.75;43.00;;;;;6.75;67.82;102982.56;4975742;28;45715;-59
2022/01/23 00:43:33;;;;;;;;;46.50;41.25;;;;;6.76;68.21;102984.31;4976831;28;46162;-58
2022/01/23 00:46:21;;;;;;;;;63.00;43.75;;;;;6.77;67.68;102980.78;4976533;28;45331;-59
2022/01/23 00:51:26;;;;;;;;;43.00;36.50;;;;;6.82;68.08;102978.16;4976651;28;45367;-60
2022/01/23 00:53:52;;;;;;;;;47.50;37.00;;;;;6.81;67.94;102982.56;4975248;28;46070;-58
2022/01/23 00:56:18;;;;;;;;;44.50;40.00;;;;;6.84;67.23;102981.66;4958913;28;45291;-59
2022/01/23 00:58:44;;;;;;;;;47.25;41.00;;;;;6.78;67.44;102978.16;4977059;28;45296;-58
2022/01/23 01:01:10;;;;;;;;;43.50;32.00;;;;;6.82;67.75;102968.44;4971634;28;45646;-58
2022/01/23 01:03:36;;;;;;;;;54.75;37.75;;;;;6.80;67.21;102972.88;4976386;28;45338;-57
2022/01/23 01:06:02;;;;;;;;;46.75;41.00;;;;;6.73;68.09;102968.47;4960293;28;45690;-61
2022/01/23 01:08:27;;;;;;;;;43.00;30.00;;;;;6.75;67.70;102970.22;4976054;28;45376;-61
2022/01/23 01:11:02;;;;;;;;;37.00;29.75;;;;;6.72;67.11;102969.34;4963600;28;45456;-58
2022/01/23 01:13:40;;;;;;;;;60.00;40.25;;;;;6.74;67.47;102980.78;4974913;28;47205;-58
2022/01/23 01:35:17;;;;;;;;;45.25;29.75;;;;;6.69;67.96;102972.88;4961932;28;45328;-60
2022/01/23 01:37:43;;;;;;;;;37.25;34.00;;;;;6.66;67.51;102969.38;4979236;28;45443;-59
2022/01/23 01:40:09;;;;;;;;;52.75;36.50;;;;;6.55;68.36;102955.28;4978613;28;45437;-60
2022/01/23 01:42:34;;;;;;;;;41.00;35.50;;;;;6.58;67.42;102971.13;4979319;28;45432;-58
2022/01/23 01:44:59;;;;;;;;;41.75;35.25;;;;;6.56;67.95;102960.56;4961623;28;45373;-58
2022/01/23 01:47:25;;;;;;;;;47.00;37.00;;;;;6.62;67.83;102968.47;4978628;28;45471;-59
2022/01/23 01:49:50;;;;;;;;;35.00;35.00;;;;;6.63;68.23;102964.06;4979493;28;45345;-59
2022/01/23 01:52:16;;;;;;;;;36.50;33.25;;;;;6.67;67.38;102958.78;4974849;28;45538;-58
2022/01/23 01:54:41;;;;;;;;;35.25;26.00;;;;;6.69;66.72;102962.31;4979176;28;46157;-58
2022/01/23 01:57:11;;;;;;;;;43.50;38.25;;;;;6.73;67.25;102963.16;4978566;28;45400;-60
2022/01/23 02:00:10;;;;;;;;;31.50;29.75;;;;;6.64;67.08;102947.31;4961854;28;45219;-58
2022/01/23 02:03:05;;;;;;;;;51.25;40.00;;;;;6.68;66.83;102954.38;4978459;28;45614;-60
2022/01/23 02:10:52;;;;;;;;;36.25;30.75;;;;;6.76;66.86;102963.16;4978779;28;45409;-59
2022/01/23 02:13:23;;;;;;;;;35.75;31.25;;;;;6.68;66.48;102963.19;4979163;28;45463;-59
2022/01/23 02:22:23;;;;;;;;;35.00;30.25;;;;;6.66;66.78;102967.59;4978944;28;45407;-59
2022/01/23 02:56:47;;;;;;;;;29.75;20.25;;;;;6.23;67.40;102916.53;4979210;28;45751;-58
2022/01/23 02:59:25;;;;;;;;;35.75;28.25;;;;;6.14;68.41;102913.94;4977406;28;45414;-59
2022/01/23 03:02:12;;;;;;;;;33.00;30.00;;;;;6.20;67.77;102913.91;4977919;28;45334;-60
2022/01/23 03:04:47;;;;;;;;;39.25;33.75;;;;;6.32;67.51;102924.47;4976829;28;45717;-60
2022/01/23 03:07:37;;;;;;;;;41.00;31.00;;;;;6.31;67.57;102906.84;4951360;28;45532;-59
2022/01/23 03:10:12;;;;;;;;;40.50;31.00;;;;;6.42;67.69;102914.78;4978086;28;46025;-59
2022/01/23 03:29:19;;;;;;;;;27.25;26.00;;;;;6.43;66.74;102896.25;4977983;28;45314;-60
2022/01/23 03:31:44;;;;;;;;;35.75;29.25;;;;;6.32;67.19;102892.75;4977031;28;45957;-59
2022/01/23 03:34:11;;;;;;;;;35.25;27.50;;;;;6.25;68.04;102901.59;4977693;28;45271;-59
2022/01/23 03:36:38;;;;;;;;;35.50;30.50;;;;;6.26;68.10;102895.44;4978049;28;45242;-60
2022/01/23 03:39:08;;;;;;;;;30.75;27.25;;;;;6.34;67.38;102893.63;4960723;28;45387;-57
2022/01/23 03:41:40;;;;;;;;;41.00;29.75;;;;;6.21;67.11;102861.06;4977144;28;46372;-58
2022/01/23 03:44:08;;;;;;;;;29.75;29.25;;;;;6.45;67.24;102897.13;4957496;28;45524;-60
2022/01/23 03:52:11;;;;;;;;;33.00;27.00;;;;;6.46;67.58;102893.59;4937735;28;46146;-59
2022/01/23 03:54:39;;;;;;;;;34.75;33.25;;;;;6.40;67.73;102891.00;4975947;28;45563;-60
2022/01/23 03:57:06;;;;;;;;;30.75;29.00;;;;;6.40;67.32;102888.34;4960040;28;45335;-59
2022/01/23 03:59:33;;;;;;;;;38.00;34.75;;;;;6.39;67.79;102889.25;4944295;28;45651;-58
2022/01/23 04:01:59;;;;;;;;;36.75;26.75;;;;;6.44;67.88;102886.56;4980517;28;46763;-60
2022/01/23 04:04:38;;;;;;;;;42.75;28.25;;;;;6.44;67.78;102887.44;4977138;28;45398;-59
2022/01/23 04:07:09;;;;;;;;;33.75;28.50;;;;;6.34;67.40;102885.69;4966910;28;45451;-59
2022/01/23 04:09:35;;;;;;;;;29.75;29.00;;;;;6.35;67.03;102876.00;4977412;28;45963;-58
2022/01/23 04:12:01;;;;;;;;;26.75;26.75;;;;;6.42;66.95;102888.34;4977341;28;45466;-61
2022/01/23 04:14:28;;;;;;;;;29.75;24.00;;;;;6.43;67.33;102880.41;4977352;28;45408;-59
2022/01/23 04:20:22;;;;;;;;;41.00;25.00;;;;;6.39;66.80;102878.66;4896265;29;45462;-57
2022/01/23 04:33:53;;;;;;;;;25.75;22.00;;;;;6.37;67.09;102885.69;4976993;28;45388;-58
2022/01/23 05:01:24;;;;;;;;;37.50;23.00;;;;;6.26;66.75;102890.13;4970010;28;45503;-58
2022/01/23 05:04:11;;;;;;;;;26.75;22.50;;;;;6.31;66.96;102895.41;4976227;28;45574;-58
2022/01/23 05:06:45;;;;;;;;;32.50;25.25;;;;;6.29;66.29;102898.06;4968598;28;46265;-59
2022/01/23 05:09:12;;;;;;;;;29.75;26.50;;;;;6.28;66.56;102893.66;4976407;28;45381;-58
2022/01/23 05:11:46;;;;;;;;;29.25;23.75;;;;;6.34;67.00;102888.34;4975303;28;45448;-60
2022/01/23 05:14:12;;;;;;;;;20.50;18.50;;;;;6.34;66.85;102891.00;4976379;28;45501;-60
2022/01/23 05:16:38;;;;;;;;;35.25;26.75;;;;;6.26;67.41;102895.44;4959282;28;46143;-59
2022/01/23 05:19:05;;;;;;;;;47.25;28.75;;;;;6.32;66.89;102892.75;4976007;28;45373;-58
2022/01/23 05:24:00;;;;;;;;;35.50;28.50;;;;;6.17;67.39;102882.22;4959433;28;45621;-59
2022/01/23 05:26:26;;;;;;;;;35.75;29.25;;;;;6.27;67.11;102894.53;4991962;28;46503;-59
2022/01/23 05:28:52;;;;;;;;;34.25;23.50;;;;;6.13;67.33;102869.91;4975052;28;45417;-59
2022/01/23 05:31:17;;;;;;;;;37.75;29.75;;;;;6.29;67.63;102902.47;4976596;28;45260;-59
2022/01/23 05:33:42;;;;;;;;;29.50;26.25;;;;;6.22;68.21;102883.97;4973564;28;45595;-58
2022/01/23 05:36:08;;;;;;;;;24.25;24.25;;;;;6.29;67.66;102903.34;4975790;28;46075;-60
2022/01/23 05:38:34;;;;;;;;;40.00;26.75;;;;;6.27;68.25;102893.66;4976300;28;45425;-59
2022/01/23 05:41:00;;;;;;;;;29.50;25.00;;;;;6.29;66.91;102897.19;4975815;28;45322;-59
2022/01/23 05:43:25;;;;;;;;;17.50;11.25;;;;;6.21;67.04;102886.59;4976762;28;45547;-58
2022/01/23 05:45:52;;;;;;;;;38.00;27.50;;;;;6.16;67.79;102896.31;4975574;28;45500;-58
2022/01/23 05:48:18;;;;;;;;;32.00;27.75;;;;;6.07;67.57;102870.78;4969115;28;45428;-59
2022/01/23 05:50:44;;;;;;;;;31.75;26.00;;;;;6.21;67.73;102894.53;4974520;28;45246;-59
2022/01/23 05:53:09;;;;;;;;;32.75;31.75;;;;;6.25;67.65;102898.03;4975936;28;45529;-59
2022/01/23 05:55:35;;;;;;;;;35.75;27.50;;;;;6.26;66.99;102898.06;4975744;28;45329;-60
2022/01/23 05:58:00;;;;;;;;;20.25;19.25;;;;;6.24;67.37;102896.28;4974375;28;45369;-59
2022/01/23 06:00:26;;;;;;;;;36.50;25.75;;;;;6.20;67.60;102898.06;4975621;28;45292;-59
2022/01/23 06:02:53;;;;;;;;;31.00;25.75;;;;;6.20;67.42;102887.50;4958611;28;45627;-60
2022/01/23 06:05:18;;;;;;;;;32.50;29.00;;;;;6.19;67.76;102904.22;4975325;28;45389;-58
2022/01/23 06:07:45;;;;;;;;;33.75;25.25;;;;;6.13;67.25;102894.56;4977034;28;45484;-59
2022/01/23 06:10:20;;;;;;;;;40.00;29.50;;;;;6.18;67.40;102905.13;4978757;28;45326;-59
2022/01/23 06:12:45;;;;;;;;;35.50;28.75;;;;;6.18;66.63;102911.28;4978686;28;45510;-61
2022/01/23 06:15:10;;;;;;;;;33.00;28.00;;;;;6.19;67.51;102909.50;4962271;28;46016;-60
2022/01/23 06:17:37;;;;;;;;;25.75;23.00;;;;;6.19;67.56;102912.16;4960924;28;45366;-64
2022/01/23 06:20:03;;;;;;;;;26.25;26.25;;;;;6.18;67.53;102906.00;4978916;28;46900;-61
2022/01/23 06:22:28;;;;;;;;;29.25;20.75;;;;;6.21;67.42;102905.09;4979655;28;45233;-57
2022/01/23 06:24:53;;;;;;;;;27.25;22.50;;;;;6.17;67.23;102903.34;4978402;28;46359;-60
2022/01/23 06:27:19;;;;;;;;;25.75;21.75;;;;;6.08;67.22;102892.78;4978818;28;45171;-60
2022/01/23 06:29:45;;;;;;;;;32.00;23.50;;;;;6.12;67.30;102897.19;4978459;28;45552;-61
2022/01/23 06:32:12;;;;;;;;;31.75;24.00;;;;;6.20;67.40;102900.69;4979011;28;45810;-62
2022/01/23 06:34:38;;;;;;;;;21.25;16.50;;;;;6.17;66.47;102888.38;4978242;28;45324;-60
2022/01/23 06:37:04;;;;;;;;;21.00;15.25;;;;;6.12;66.38;102905.09;4978726;28;45426;-60
2022/01/23 06:39:31;;;;;;;;;23.75;16.75;;;;;6.07;66.36;102902.47;4977813;28;45479;-60
2022/01/23 06:41:57;;;;;;;;;21.50;16.50;;;;;6.02;67.05;102891.03;4960230;28;45627;-61
2022/01/23 06:44:24;;;;;;;;;17.00;13.00;;;;;6.00;67.21;102879.59;4989023;28;45989;-59
2022/01/23 06:46:50;;;;;;;;;30.25;20.50;;;;;6.17;67.19;102900.72;4978283;28;45296;-60
2022/01/23 06:49:15;;;;;;;;;26.25;21.75;;;;;6.10;66.92;102889.25;4960868;28;45389;-60
2022/01/23 06:51:42;;;;;;;;;21.75;20.00;;;;;6.09;66.72;102899.81;4978978;28;45181;-58
2022/01/23 06:54:08;;;;;;;;;20.75;19.25;;;;;6.10;66.80;102893.66;4960794;28;47410;-60
2022/01/23 06:56:34;;;;;;;;;15.00;13.25;;;;;6.10;66.80;102906.88;4978149;28;45414;-58
2022/01/23 06:58:59;;;;;;;;;15.75;12.50;;;;;5.98;66.89;102901.59;4978183;28;45505;-59
2022/01/23 07:01:25;;;;;;;;;16.75;15.25;;;;;5.97;67.01;102899.81;4978158;28;45457;-59
2022/01/23 07:03:50;;;;;;;;;17.50;12.50;;;;;6.07;66.68;102918.31;4977933;28;45506;-59
2022/01/23 07:06:16;;;;;;;;;23.75;17.25;;;;;5.99;67.08;102896.34;4978088;28;45301;-59
2022/01/23 07:08:41;;;;;;;;;17.25;13.50;;;;;6.04;67.42;102914.81;4977701;28;45370;-58
2022/01/23 07:11:07;;;;;;;;;20.25;13.75;;;;;6.00;67.56;102921.00;4978181;28;45626;-59
2022/01/23 07:13:33;;;;;;;;;15.50;9.00;;;;;5.95;67.79;102922.72;4978760;28;46150;-59
2022/01/23 07:15:58;;;;;;;;;12.25;8.00;;;;;5.88;67.41;102906.84;4978886;28;45282;-61
2022/01/23 07:18:24;;;;;;;;;10.50;8.50;;;;;5.92;67.56;102923.63;4978267;28;45338;-59
2022/01/23 07:20:49;;;;;;;;;15.25;13.00;;;;;5.98;67.54;102928.00;4977453;28;45158;-59
2022/01/23 07:23:21;;;;;;;;;19.00;12.75;;;;;5.97;67.31;102910.41;4976775;28;46615;-60
2022/01/23 07:25:46;;;;;;;;;22.25;13.00;;;;;5.98;67.63;102922.72;4978112;28;45406;-60
2022/01/23 07:28:15;;;;;;;;;19.25;13.00;;;;;5.94;67.06;102910.41;4978116;28;45456;-59
2022/01/23 07:30:51;;;;;;;;;14.50;13.25;;;;;5.95;67.20;102917.44;4973529;28;45530;-61
2022/01/23 07:33:17;;;;;;;;;12.25;10.00;;;;;5.96;67.14;102919.19;4976988;28;45437;-59
2022/01/23 07:35:43;;;;;;;;;15.00;15.00;;;;;5.92;66.77;102907.75;4972568;28;45380;-59
2022/01/23 07:38:11;;;;;;;;;19.75;8.75;;;;;5.94;67.15;102918.31;4976399;28;45753;-59
2022/01/23 07:40:37;;;;;;;;;12.75;12.75;;;;;5.89;67.29;102902.47;4970177;28;45521;-60
2022/01/23 07:43:02;;;;;;;;;16.75;11.25;;;;;5.95;67.56;102907.75;4973977;28;45518;-60
2022/01/23 07:45:28;;;;;;;;;15.25;14.75;;;;;5.97;67.17;102920.97;4976264;28;45441;-58
2022/01/23 07:47:53;;;;;;;;;11.00;9.00;;;;;6.02;67.10;102908.66;4962704;28;45569;-60
2022/01/23 07:50:19;;;;;;;;;19.75;13.25;;;;;5.93;67.33;102890.16;4962346;28;45569;-59
2022/01/23 07:52:44;;;;;;;;;14.75;12.75;;;;;6.05;66.33;102919.22;4975324;28;47751;-59
2022/01/23 07:55:13;;;;;;;;;13.50;13.50;;;;;6.06;66.01;102915.69;4976471;28;45455;-60
2022/01/23 07:57:40;;;;;;;;;12.00;9.50;;;;;6.04;65.95;102917.44;4977459;28;45453;-58
2022/01/23 08:00:08;;;;;;;;;18.75;15.50;;;;;6.08;66.91;102924.50;4959875;28;45498;-59
2022/01/23 08:02:34;;;;;;;;;18.75;18.00;;;;;6.04;66.78;102931.53;4960082;28;45480;-58
2022/01/23 08:04:59;;;;;;;;;25.00;15.00;;;;;5.94;67.01;102926.25;4959328;28;45387;-60
2022/01/23 08:09:56;;;;;;;;;19.50;15.00;;;;;5.96;67.13;102945.63;4977671;28;45315;-59
2022/01/23 08:12:22;;;;;;;;;20.25;15.25;;;;;5.78;67.12;102920.94;4977116;28;47275;-59
2022/01/23 08:14:48;;;;;;;;;25.25;18.00;;;;;5.99;67.13;102958.81;4976625;28;45421;-60
2022/01/23 08:17:13;;;;;;;;;20.25;18.25;;;;;5.85;65.66;102938.53;4992069;28;45403;-59
2022/01/23 08:19:39;;;;;;;;;21.00;17.75;;;;;5.97;66.34;102958.81;4949466;28;45588;-59
2022/01/23 08:22:04;;;;;;;;;18.50;17.25;;;;;6.04;65.81;102959.72;4977462;28;45213;-60
2022/01/23 08:24:33;;;;;;;;;24.50;17.00;;;;;5.95;65.45;102942.09;4976874;28;45219;-60
2022/01/23 08:26:58;;;;;;;;;19.25;18.25;;;;;5.96;66.78;102950.91;4959816;28;45604;-60
2022/01/23 08:29:24;;;;;;;;;31.25;22.50;;;;;5.94;66.15;102960.59;4976062;28;45622;-63
2022/01/23 08:31:49;;;;;;;;;21.75;19.50;;;;;5.97;65.98;102952.66;4976691;28;46504;-59
2022/01/23 08:34:16;;;;;;;;;18.50;16.00;;;;;5.99;65.85;102950.88;4959504;28;45398;-58
2022/01/23 08:36:42;;;;;;;;;18.75;13.25;;;;;5.87;65.79;102957.03;4977121;28;45504;-62
2022/01/23 08:39:07;;;;;;;;;20.25;17.50;;;;;5.89;66.28;102953.50;4977131;28;45574;-61
2022/01/23 08:41:50;;;;;;;;;29.50;19.75;;;;;5.97;65.85;102958.81;4959616;28;46169;-60
2022/01/23 08:44:20;;;;;;;;;22.75;19.75;;;;;5.91;66.45;102946.50;4959400;28;45368;-60
2022/01/23 08:46:46;;;;;;;;;23.25;16.75;;;;;6.01;65.57;102967.66;4976940;28;45439;-61
2022/01/23 08:49:12;;;;;;;;;22.25;14.00;;;;;5.95;65.89;102959.69;4991826;28;45263;-60
2022/01/23 08:51:38;;;;;;;;;20.00;19.25;;;;;5.79;66.64;102938.53;4959051;28;47307;-60
2022/01/23 08:54:04;;;;;;;;;19.50;16.00;;;;;5.94;67.04;102952.66;4976890;28;45412;-59
2022/01/23 08:56:31;;;;;;;;;22.50;18.75;;;;;6.00;66.04;102955.31;4976961;28;45346;-60
2022/01/23 08:58:57;;;;;;;;;27.00;19.00;;;;;6.04;65.60;102959.72;4959201;28;45472;-60
2022/01/23 09:01:26;;;;;;;;;24.00;19.25;;;;;6.05;66.63;102966.75;4976421;28;45498;-58
2022/01/23 09:03:51;;;;;;;;;26.00;23.75;;;;;5.99;65.50;102948.25;4976448;28;45310;-60
2022/01/23 09:06:17;;;;;;;;;28.75;22.50;;;;;5.97;66.31;102956.19;4959013;28;45346;-63
2022/01/23 09:08:42;;;;;;;;;26.25;18.75;;;;;6.02;66.25;102957.09;4976607;28;45218;-59
2022/01/23 09:11:13;;;;;;;;;24.75;19.00;;;;;6.02;65.48;102961.47;4975032;28;45917;-63
2022/01/23 09:16:06;;;;;;;;;22.25;19.75;;;;;6.02;65.65;102972.06;4975761;28;45628;-60
2022/01/23 09:18:33;;;;;;;;;30.75;25.50;;;;;6.01;65.36;102954.44;4961115;28;45519;-59
2022/01/23 09:20:59;;;;;;;;;26.25;22.00;;;;;6.03;65.75;102958.84;4975774;28;45396;-61
2022/01/23 09:23:25;;;;;;;;;20.75;15.75;;;;;6.03;66.29;102964.13;4975666;28;45420;-60
2022/01/23 09:25:51;;;;;;;;;25.75;20.00;;;;;6.11;66.05;102964.09;4976380;28;45433;-63
2022/01/23 09:28:19;;;;;;;;;26.00;19.75;;;;;6.13;65.80;102957.09;4976757;28;45552;-62
2022/01/23 09:30:49;;;;;;;;;18.25;17.75;;;;;6.16;65.28;102965.00;4976528;28;45346;-61
2022/01/23 09:33:16;;;;;;;;;35.75;22.75;;;;;6.13;65.64;102965.91;4972195;28;45549;-59
2022/01/23 09:35:41;;;;;;;;;28.25;22.00;;;;;6.10;65.79;102955.31;4961771;28;45562;-60
2022/01/23 09:38:07;;;;;;;;;22.75;20.25;;;;;6.13;66.09;102962.38;4982204;28;45521;-61
2022/01/23 09:40:33;;;;;;;;;20.00;17.75;;;;;6.15;65.75;102976.47;4972104;28;45543;-60
2022/01/23 09:43:07;;;;;;;;;24.50;21.25;;;;;6.14;66.19;102964.13;4952200;28;45536;-60
2022/01/23 09:45:34;;;;;;;;;24.00;19.50;;;;;6.24;65.68;102973.78;4971742;28;45494;-60
2022/01/23 09:48:02;;;;;;;;;27.00;19.50;;;;;6.14;65.70;102972.06;4981526;28;45522;-59
2022/01/23 09:50:29;;;;;;;;;20.25;19.00;;;;;6.06;65.46;102965.88;4964445;28;46555;-60
2022/01/23 09:52:56;;;;;;;;;32.25;30.50;;;;;6.03;65.56;102950.03;4942238;28;45444;-59
2022/01/23 09:55:22;;;;;;;;;29.75;21.75;;;;;6.09;65.32;102952.66;4977407;28;45436;-62
2022/01/23 09:57:49;;;;;;;;;30.25;21.50;;;;;6.11;65.42;102972.03;4979778;28;45540;-60
2022/01/23 10:00:20;;;;;;;;;17.25;17.00;;;;;5.97;65.05;102953.53;4979242;28;45282;-61
2022/01/23 10:02:46;;;;;;;;;22.75;18.00;;;;;6.08;66.01;102964.13;4979337;28;45499;-60
2022/01/23 10:05:12;;;;;;;;;25.00;18.25;;;;;6.08;66.11;102964.13;4980617;28;45516;-60
2022/01/23 10:07:41;;;;;;;;;18.75;15.75;;;;;6.09;65.99;102968.50;4989347;28;45558;-61
2022/01/23 10:10:14;;;;;;;;;22.50;19.00;;;;;6.10;66.25;102962.34;4978979;28;46204;-61
2022/01/23 10:12:51;;;;;;;;;29.50;23.75;;;;;6.09;65.82;102971.16;4977892;28;45226;-59
2022/01/23 10:15:18;;;;;;;;;22.00;16.75;;;;;6.07;66.58;102962.34;4961493;28;45289;-60
2022/01/23 10:17:44;;;;;;;;;18.75;16.25;;;;;6.10;65.33;102981.72;4949462;28;45572;-61
2022/01/23 10:20:12;;;;;;;;;27.00;21.75;;;;;6.13;65.71;102980.88;4958595;28;45500;-59
2022/01/23 10:22:41;;;;;;;;;18.25;18.25;;;;;6.09;65.47;102963.22;4960408;28;45384;-60
2022/01/23 10:25:10;;;;;;;;;17.50;15.25;;;;;6.12;65.84;102977.34;4977226;28;45538;-60
2022/01/23 10:27:56;;;;;;;;;17.75;15.50;;;;;6.07;65.27;102957.06;4978649;28;45483;-60
2022/01/23 10:30:26;;;;;;;;;16.75;14.75;;;;;6.17;66.23;102966.78;4978932;28;46911;-61
2022/01/23 10:33:10;;;;;;;;;15.50;11.75;;;;;6.11;65.57;102979.97;4979267;28;45339;-61
2022/01/23 10:36:08;;;;;;;;;25.25;15.50;;;;;6.08;65.57;102977.31;4977941;28;45279;-61
2022/01/23 10:38:55;;;;;;;;;23.25;19.25;;;;;6.09;66.47;102973.78;4973621;28;45441;-61
2022/01/23 10:49:51;;;;;;;;;19.25;17.50;;;;;6.06;66.16;102965.88;4977595;28;45464;-61
2022/01/23 10:52:29;;;;;;;;;21.50;19.00;;;;;6.04;66.67;102965.00;4976058;28;46294;-62
2022/01/23 10:54:55;;;;;;;;;19.50;18.00;;;;;6.04;66.69;102965.00;4977926;28;45456;-64
2022/01/23 10:57:20;;;;;;;;;18.75;18.00;;;;;6.07;66.19;102965.00;4960014;28;45509;-62
2022/01/23 10:59:51;;;;;;;;;19.00;15.75;;;;;6.03;65.89;102957.97;4968723;28;45488;-61
2022/01/23 11:02:21;;;;;;;;;22.75;18.75;;;;;6.04;66.21;102949.16;4993377;28;45616;-60
2022/01/23 11:05:05;;;;;;;;;20.50;19.00;;;;;6.12;66.28;102953.56;4994459;28;45710;-63
2022/01/23 11:07:33;;;;;;;;;22.50;20.75;;;;;6.15;65.90;102955.31;4983407;28;45415;-60
2022/01/23 11:10:06;;;;;;;;;17.25;15.75;;;;;6.15;66.64;102956.19;4985178;28;45503;-59
2022/01/23 11:18:11;;;;;;;;;19.50;18.00;;;;;6.14;65.76;102938.59;4991805;28;45531;-60
2022/01/23 11:20:46;;;;;;;;;24.50;18.50;;;;;6.11;65.85;102940.31;4978236;28;45460;-59
2022/01/23 11:23:17;;;;;;;;;18.00;16.75;;;;;6.09;66.75;102942.97;4989970;28;46128;-61
2022/01/23 11:26:02;;;;;;;;;19.00;16.75;;;;;6.13;65.81;102935.94;4987609;28;45686;-62
2022/01/23 11:28:29;;;;;;;;;19.75;16.50;;;;;6.15;65.82;102926.25;4977249;28;45390;-60
2022/01/23 11:30:54;;;;;;;;;19.50;18.50;;;;;6.08;65.90;102919.19;4974738;28;45590;-62
2022/01/23 11:33:20;;;;;;;;;19.50;17.50;;;;;6.15;66.44;102926.25;4957696;28;45810;-60
2022/01/23 11:35:47;;;;;;;;;16.25;15.75;;;;;6.14;65.51;102919.22;4977769;28;45383;-59
2022/01/23 11:38:16;;;;;;;;;22.50;15.50;;;;;6.12;65.46;102920.94;4978096;28;45328;-63
2022/01/23 11:54:37;;;;;;;;;19.00;17.25;;;;;6.19;65.47;102896.31;4975596;28;45743;-60
2022/01/23 11:57:03;;;;;;;;;11.00;8.25;;;;;6.28;64.98;102903.34;4980322;28;45355;-63
2022/01/23 11:59:41;;;;;;;;;22.50;15.50;;;;;6.27;65.38;102894.53;4980831;28;45310;-60
2022/01/23 12:02:13;;;;;;;;;18.50;12.75;;;;;6.25;64.82;102891.03;4965761;28;45487;-62
2022/01/23 12:04:41;;;;;;;;;16.75;15.00;;;;;6.21;64.87;102886.59;4976600;28;46250;-64
2022/01/23 12:07:11;;;;;;;;;19.25;13.50;;;;;6.24;64.07;102894.53;4977180;28;45882;-64
2022/01/23 12:09:37;;;;;;;;;15.75;15.00;;;;;6.21;63.87;102884.84;4978750;28;45258;-61
2022/01/23 12:12:26;;;;;;;;;13.25;12.50;;;;;6.25;64.11;102890.13;4980554;28;45571;-59
2022/01/23 12:18:22;;;;;;;;;18.75;16.75;;;;;6.25;64.43;102880.47;4986324;28;45414;-61
2022/01/23 12:20:53;;;;;;;;;14.75;12.75;;;;;6.27;63.89;102878.69;4977554;28;45459;-64
2022/01/23 12:23:19;;;;;;;;;22.50;19.50;;;;;6.22;64.06;102869.88;4959217;28;45479;-60
2022/01/23 12:25:50;;;;;;;;;19.00;14.50;;;;;6.17;64.03;102866.38;4975714;28;46070;-59
2022/01/23 12:28:43;;;;;;;;;16.00;16.00;;;;;6.20;64.90;102867.22;4966764;28;45456;-60
2022/01/23 12:31:14;;;;;;;;;19.50;18.00;;;;;6.27;64.09;102861.94;4973820;28;45416;-61
2022/01/23 12:33:40;;;;;;;;;13.75;13.00;;;;;6.22;64.34;102864.59;4959956;28;45628;-61
2022/01/23 12:36:07;;;;;;;;;18.00;13.50;;;;;6.26;64.70;102858.44;4975971;28;45479;-61
2022/01/23 12:38:46;;;;;;;;;9.50;9.50;;;;;6.30;64.16;102854.88;4965063;28;45606;-61
2022/01/23 12:41:32;;;;;;;;;15.00;14.25;;;;;6.34;64.78;102848.69;4959284;28;45525;-60
2022/01/23 12:44:05;;;;;;;;;20.25;16.50;;;;;6.39;64.44;102854.88;4976647;28;45341;-63
2022/01/23 12:46:30;;;;;;;;;17.00;15.50;;;;;6.44;63.69;102844.28;4974211;28;46144;-60
2022/01/23 12:48:59;;;;;;;;;15.25;15.00;;;;;6.47;64.13;102838.97;4962903;28;45496;-60
2022/01/23 12:51:33;;;;;;;;;13.25;11.25;;;;;6.50;64.41;102831.91;4980207;28;45988;-60
2022/01/23 12:53:58;;;;;;;;;19.50;19.50;;;;;6.56;64.34;102832.78;4968055;28;45453;-63
2022/01/23 12:56:41;;;;;;;;;18.75;17.50;;;;;6.52;63.96;102823.13;4976206;28;45421;-61
2022/01/23 12:59:11;;;;;;;;;16.50;16.50;;;;;6.45;63.73;102825.78;4978917;28;45478;-60
2022/01/23 13:01:41;;;;;;;;;31.00;22.25;;;;;6.39;64.44;102819.63;4974475;28;45499;-60
2022/01/23 13:04:08;;;;;;;;;18.75;12.50;;;;;6.41;64.07;102817.88;4978089;28;45563;-60
2022/01/23 13:06:57;;;;;;;;;19.50;17.25;;;;;6.48;64.14;102819.59;4976502;28;45352;-60
2022/01/23 13:09:48;;;;;;;;;23.25;20.00;;;;;6.50;63.96;102813.41;4962367;28;45444;-59
2022/01/23 13:31:49;;;;;;;;;28.25;20.00;;;;;6.59;64.76;102790.47;4957031;28;45321;-61
2022/01/23 13:34:32;;;;;;;;;21.50;17.50;;;;;6.55;64.28;102792.25;4961397;28;45322;-60
2022/01/23 13:37:06;;;;;;;;;18.75;16.00;;;;;6.53;64.38;102796.69;4977445;28;45462;-59
2022/01/23 13:39:38;;;;;;;;;17.50;16.00;;;;;6.49;64.40;102779.94;4976703;28;45768;-59
2022/01/23 13:59:56;;;;;;;;;19.25;17.25;;;;;6.58;64.71;102747.28;4973895;28;45498;-63
2022/01/23 14:02:37;;;;;;;;;22.75;19.50;;;;;6.61;64.35;102747.25;4963290;28;47061;-63
2022/01/23 14:05:15;;;;;;;;;26.50;22.50;;;;;6.59;64.16;102737.59;4956399;28;45316;-61
2022/01/23 14:07:47;;;;;;;;;26.00;24.25;;;;;6.65;64.05;102742.88;4973127;28;45572;-60
2022/01/23 14:10:18;;;;;;;;;33.00;23.00;;;;;6.67;64.22;102743.72;4982320;28;45324;-60
2022/01/23 14:12:46;;;;;;;;;28.75;26.50;;;;;6.70;64.35;102736.66;4974958;28;47681;-63
2022/01/23 14:15:17;;;;;;;;;30.50;22.75;;;;;6.75;63.93;102733.97;4983440;28;45308;-59
2022/01/23 14:18:17;;;;;;;;;20.75;20.25;;;;;6.67;63.95;102725.22;4977387;28;45277;-59
2022/01/23 14:21:01;;;;;;;;;20.75;19.75;;;;;6.62;64.04;102721.72;4972926;28;45392;-60
2022/01/23 14:23:27;;;;;;;;;24.75;19.50;;;;;6.67;63.80;102730.50;4971273;28;46367;-60
2022/01/23 14:26:06;;;;;;;;;20.25;20.25;;;;;6.67;64.63;102730.50;4975158;28;45399;-62
2022/01/23 14:28:38;;;;;;;;;24.50;19.25;;;;;6.61;64.69;102722.59;4968975;28;45591;-60
2022/01/23 14:31:17;;;;;;;;;26.75;23.00;;;;;6.64;64.89;102725.22;4972580;28;45479;-61
2022/01/23 14:33:43;;;;;;;;;25.00;21.75;;;;;6.68;64.66;102729.63;4959082;28;45791;-60
2022/01/23 14:36:20;;;;;;;;;24.75;20.00;;;;;6.67;65.05;102719.94;4978021;28;46094;-61
2022/01/23 14:39:02;;;;;;;;;21.00;19.25;;;;;6.67;64.42;102723.47;4968627;28;45254;-65
2022/01/23 14:41:30;;;;;;;;;20.00;16.75;;;;;6.61;64.60;102719.94;4962173;28;45336;-69
2022/01/23 14:43:57;;;;;;;;;28.75;22.25;;;;;6.58;64.09;102723.50;4977278;28;46085;-58
2022/01/23 14:46:23;;;;;;;;;23.25;19.75;;;;;6.52;64.98;102720.03;4962017;28;45851;-63
2022/01/23 14:48:50;;;;;;;;;23.75;18.75;;;;;6.59;65.59;102717.31;4961671;28;45416;-59
2022/01/23 14:51:22;;;;;;;;;22.75;20.00;;;;;6.59;64.40;102696.16;4978944;28;45445;-63
2022/01/23 14:53:49;;;;;;;;;25.75;16.75;;;;;6.72;65.37;102696.97;4986082;28;45516;-59
2022/01/23 14:56:15;;;;;;;;;31.25;19.75;;;;;6.77;64.58;102697.81;4978142;28;45485;-61
2022/01/23 14:58:43;;;;;;;;;26.00;22.00;;;;;6.78;64.64;102707.53;4961452;28;45504;-59
2022/01/23 15:01:13;;;;;;;;;23.50;23.00;;;;;6.82;64.21;102717.19;4959862;28;45408;-60